Time;durP1;ratioP1;P1;durP2;ratioP2;P2;SDS_P1;SDS_P2;PMS_P1;PMS_P2;Temp;Humidity;BMP_temperature;BMP_pressure;BME280_temperature;BME280_humidity;BME280_pressure;Samples;Min_cycle;Max_cycle;Signal;HPM_P1;HPM_P2
2023/01/07 00:00:16;;;;;;;0.50;0.50;;;;;;;7.96;81.06;97385.53;29394;219;64009;-91
2023/01/07 00:00:48;;;;;;;0.50;0.50;;;;;;;7.96;80.74;97384.72;29395;220;63009;-91
2023/01/07 00:01:22;;;;;;;0.50;0.50;;;;;;;7.95;80.56;97385.81;29395;248;63005;-90
2023/01/07 00:01:53;;;;;;;0.50;0.50;;;;;;;7.94;80.65;97379.59;29395;202;63009;-90
2023/01/07 00:02:25;;;;;;;0.50;0.50;;;;;;;7.93;80.84;97386.06;29395;275;63005;-90
2023/01/07 00:02:56;;;;;;;0.50;0.50;;;;;;;7.93;80.89;97379.84;29395;213;63009;-90
2023/01/07 00:03:28;;;;;;;0.50;0.50;;;;;;;7.94;80.95;97384.16;29395;204;63004;-91
2023/01/07 00:04:02;;;;;;;0.50;0.50;;;;;;;7.95;80.98;97380.41;29395;220;63009;-90
2023/01/07 00:04:34;;;;;;;0.50;0.50;;;;;;;7.96;80.88;97384.72;29395;260;63004;-91
2023/01/07 00:05:06;;;;;;;0.50;0.50;;;;;;;7.96;80.89;97385.53;29395;236;63009;-90
2023/01/07 00:05:37;;;;;;;0.50;0.50;;;;;;;7.96;81.22;97379.31;29394;215;64008;-91
2023/01/07 00:06:12;;;;;;;0.50;0.50;;;;;;;7.96;80.63;97380.13;29395;260;63009;-90
2023/01/07 00:06:46;;;;;;;0.50;0.50;;;;;;;7.96;81.04;97374.72;29395;228;63005;-91
2023/01/07 00:07:18;;;;;;;0.50;0.50;;;;;;;7.95;80.98;97378.50;29395;222;63009;-90
2023/01/07 00:07:50;;;;;;;0.50;0.50;;;;;;;7.95;81.17;97373.09;29395;222;63005;-89
2023/01/07 00:08:22;;;;;;;0.50;0.50;;;;;;;7.94;81.16;97376.88;29395;216;63009;-91
2023/01/07 00:09:04;;;;;;;0.50;0.50;;;;;;;7.94;81.10;97382.28;29395;231;63009;-89
2023/01/07 00:09:38;;;;;;;0.50;0.50;;;;;;;7.95;81.18;97377.69;29394;216;64013;-92
2023/01/07 00:10:09;;;;;;;0.50;0.50;;;;;;;7.95;81.37;97373.09;29395;237;63005;-93
2023/01/07 00:10:40;;;;;;;0.50;0.50;;;;;;;7.94;81.00;97376.88;29395;235;63009;-91
2023/01/07 00:11:18;;;;;;;0.50;0.50;;;;;;;7.95;80.92;97383.09;29395;227;63004;-90
2023/01/07 00:11:52;;;;;;;0.50;0.50;;;;;;;7.93;80.84;97383.38;29394;311;64013;-88
2023/01/07 00:12:23;;;;;;;0.50;0.50;;;;;;;7.94;80.99;97378.78;29395;199;63004;-90
2023/01/07 00:12:55;;;;;;;0.50;0.50;;;;;;;7.94;81.21;97376.06;29395;236;63008;-91
2023/01/07 00:13:28;;;;;;;0.50;0.50;;;;;;;7.94;80.99;97376.88;29395;204;63004;-89
2023/01/07 00:14:12;;;;;;;0.50;0.50;;;;;;;7.94;81.20;97387.69;29395;216;63009;-91
2023/01/07 00:14:43;;;;;;;0.50;0.50;;;;;;;7.92;81.12;97379.03;29394;218;64009;-91
2023/01/07 00:15:15;;;;;;;0.50;0.50;;;;;;;7.91;81.10;97377.41;29395;222;63009;-89
2023/01/07 00:15:46;;;;;;;0.50;0.50;;;;;;;7.91;81.73;97377.41;29395;252;63005;-89
2023/01/07 00:16:19;;;;;;;0.50;0.50;;;;;;;7.91;81.66;97382.81;29394;209;64013;-91
2023/01/07 00:16:51;;;;;;;0.50;0.50;;;;;;;7.91;81.83;97382.81;29395;345;63005;-91
2023/01/07 00:17:22;;;;;;;0.50;0.50;;;;;;;7.93;81.64;97375.25;29395;235;63009;-89
2023/01/07 00:17:54;;;;;;;0.50;0.50;;;;;;;7.94;81.32;97376.88;29395;267;63004;-90
2023/01/07 00:18:26;;;;;;;0.50;0.50;;;;;;;7.95;80.96;97373.09;29395;203;63009;-90
2023/01/07 00:18:59;;;;;;;0.50;0.50;;;;;;;7.96;81.12;97385.53;29395;203;63004;-88
2023/01/07 00:19:31;;;;;;;0.50;0.50;;;;;;;7.98;80.74;97377.13;29395;255;63009;-90
2023/01/07 00:20:04;;;;;;;0.50;0.50;;;;;;;7.98;80.50;97377.94;29394;196;64009;-90
2023/01/07 00:20:36;;;;;;;0.50;0.50;;;;;;;8.00;80.63;97380.38;29395;277;63008;-90
2023/01/07 00:22:12;;;;;;;0.51;0.51;;;;;;;8.00;80.40;97380.38;88182;210;64004;-90
2023/01/07 00:22:49;;;;;;;0.50;0.50;;;;;;;7.99;80.44;97374.16;29394;242;64009;-91
2023/01/07 00:23:20;;;;;;;0.50;0.50;;;;;;;7.96;80.46;97369.31;29395;273;63005;-91
2023/01/07 00:24:01;;;;;;;0.50;0.50;;;;;;;7.97;80.41;97376.31;29395;203;63009;-91
2023/01/07 00:24:32;;;;;;;0.50;0.50;;;;;;;7.96;80.49;97371.22;29395;325;63005;-90
2023/01/07 00:25:04;;;;;;;0.50;0.50;;;;;;;7.95;80.62;97373.09;29395;215;63009;-91
2023/01/07 00:25:36;;;;;;;0.50;0.50;;;;;;;7.94;80.57;97368.78;29395;243;63005;-90
2023/01/07 00:26:10;;;;;;;0.50;0.50;;;;;;;7.93;81.12;97369.84;29395;242;63009;-90
2023/01/07 00:26:41;;;;;;;0.50;0.50;;;;;;;7.93;80.97;97364.44;29394;202;64001;-89
2023/01/07 00:27:13;;;;;;;0.50;0.50;;;;;;;7.93;80.65;97375.25;29395;205;63009;-90
2023/01/07 00:27:44;;;;;;;0.50;0.50;;;;;;;7.92;80.88;97365.53;29395;226;63004;-90
2023/01/07 00:28:16;;;;;;;0.50;0.50;;;;;;;7.92;80.75;97367.41;29395;204;63009;-89
2023/01/07 00:28:49;;;;;;;0.50;0.50;;;;;;;7.92;80.98;97362.00;29394;211;64004;-90
2023/01/07 00:29:20;;;;;;;0.50;0.50;;;;;;;7.92;80.87;97362.81;29395;196;63009;-90
2023/01/07 00:29:52;;;;;;;0.50;0.50;;;;;;;7.92;81.06;97362.00;29395;256;63005;-89
2023/01/07 00:30:23;;;;;;;0.50;0.50;;;;;;;7.90;81.20;97359.56;29395;220;63009;-90
2023/01/07 00:31:25;;;;;;;0.50;0.50;;;;;;;7.81;81.96;97350.34;29395;205;63005;-90
2023/01/07 00:31:59;;;;;;;0.50;0.50;;;;;;;7.89;81.91;97363.34;29416;254;64013;-88
2023/01/07 00:32:58;;;;;;;0.50;0.50;;;;;;;7.87;81.84;97357.38;29395;226;63005;-90
2023/01/07 00:33:30;;;;;;;3.03;2.92;;;;;;;7.87;81.44;97361.97;29395;203;63017;-89
2023/01/07 00:34:44;;;;;;;0.50;0.50;;;;;;;7.86;81.37;97352.25;29417;272;63009;-89
2023/01/07 00:35:22;;;;;;;0.50;0.50;;;;;;;7.86;81.58;97358.47;29395;202;63004;-90
2023/01/07 00:36:04;;;;;;;0.50;0.50;;;;;;;7.86;81.43;97355.75;29395;211;63008;-90
2023/01/07 00:36:42;;;;;;;0.50;0.50;;;;;;;7.87;81.63;97357.38;29395;269;63004;-91
2023/01/07 00:38:04;;;;;;;0.50;0.50;;;;;;;7.88;81.77;97355.50;29479;242;125014;-90
2023/01/07 00:38:37;;;;;;;0.50;0.50;;;;;;;7.87;81.61;97351.16;29395;198;63005;-89
2023/01/07 00:39:13;;;;;;;0.50;0.50;;;;;;;7.87;82.22;97356.56;29395;254;63000;-90
2023/01/07 00:39:44;;;;;;;0.50;0.50;;;;;;;7.86;82.15;97349.53;29395;197;63005;-90
2023/01/07 00:40:17;;;;;;;0.50;0.50;;;;;;;7.84;82.27;97349.81;29395;215;63000;-89
2023/01/07 00:40:48;;;;;;;0.50;0.50;;;;;;;7.84;82.08;97349.00;29395;238;63005;-91
2023/01/07 00:41:21;;;;;;;0.47;0.47;;;;;;;7.83;82.24;97348.19;29395;208;63000;-90
2023/01/07 00:43:46;;;;;;;0.50;0.50;;;;;;;7.85;82.06;97346.03;29395;206;63008;-91
2023/01/07 00:44:18;;;;;;;0.50;0.50;;;;;;;7.85;82.26;97347.91;29395;263;63005;-90
2023/01/07 00:44:50;;;;;;;0.50;0.50;;;;;;;7.86;82.26;97346.84;29395;229;63009;-89
2023/01/07 00:45:22;;;;;;;0.50;0.50;;;;;;;7.84;82.23;97352.50;29395;232;63005;-90
2023/01/07 00:45:54;;;;;;;0.50;0.50;;;;;;;7.84;81.97;97344.41;29394;312;64009;-90
2023/01/07 00:46:29;;;;;;;0.50;0.50;;;;;;;7.83;82.33;97348.19;29395;202;63005;-91
2023/01/07 00:47:01;;;;;;;0.50;0.50;;;;;;;7.83;82.46;97342.78;29394;205;64013;-90
2023/01/07 00:47:32;;;;;;;0.50;0.50;;;;;;;7.82;82.26;97341.16;29395;257;63005;-91
2023/01/07 00:48:05;;;;;;;0.50;0.50;;;;;;;7.83;82.01;97341.97;29395;216;63009;-90
2023/01/07 00:48:41;;;;;;;0.50;0.50;;;;;;;7.83;82.05;97348.19;29395;210;63004;-89
2023/01/07 00:49:13;;;;;;;0.50;0.50;;;;;;;7.84;82.10;97343.59;29395;280;63009;-91
2023/01/07 00:49:45;;;;;;;0.50;0.50;;;;;;;7.83;82.02;97340.06;29395;202;63004;-90
2023/01/07 00:50:18;;;;;;;0.50;0.50;;;;;;;7.82;81.85;97345.75;29395;204;63008;-89
2023/01/07 00:50:50;;;;;;;0.50;0.50;;;;;;;7.82;82.14;97343.84;29395;211;63004;-90
2023/01/07 00:51:22;;;;;;;0.50;0.50;;;;;;;7.82;82.33;97340.34;29395;220;63009;-89
2023/01/07 00:52:59;;;;;;;0.50;0.50;;;;;;;7.80;82.44;97342.50;88181;204;64005;-86
2023/01/07 00:53:31;;;;;;;0.50;0.50;;;;;;;7.79;82.73;97341.69;29394;210;64009;-90
2023/01/07 00:54:04;;;;;;;0.50;0.50;;;;;;;7.78;82.54;97331.94;29395;394;63004;-91
2023/01/07 00:54:40;;;;;;;0.50;0.50;;;;;;;7.79;82.43;97336.28;29394;215;64013;-91
2023/01/07 00:55:13;;;;;;;0.50;0.50;;;;;;;7.80;82.27;97334.37;29395;203;63005;-90
2023/01/07 00:55:47;;;;;;;0.50;0.50;;;;;;;7.79;82.48;97336.28;29394;210;64014;-90
2023/01/07 00:56:20;;;;;;;0.50;0.50;;;;;;;7.77;82.45;97332.22;29395;247;63005;-89
2023/01/07 00:56:56;;;;;;;0.50;0.50;;;;;;;7.75;82.34;97335.19;29395;278;63009;-89
2023/01/07 00:57:33;;;;;;;0.50;0.50;;;;;;;7.75;82.69;97340.56;29395;225;63005;-89
2023/01/07 00:58:05;;;;;;;0.50;0.50;;;;;;;7.75;82.48;97335.19;29395;221;63009;-89
2023/01/07 00:58:36;;;;;;;0.50;0.50;;;;;;;7.74;82.74;97333.56;29394;229;64009;-89
2023/01/07 00:59:07;;;;;;;0.50;0.50;;;;;;;7.75;82.89;97335.19;29395;211;63009;-89
2023/01/07 00:59:39;;;;;;;0.50;0.50;;;;;;;7.74;82.94;97333.56;29395;224;63004;-90
2023/01/07 01:00:14;;;;;;;0.50;0.50;;;;;;;7.74;82.82;97339.75;29395;240;63009;-91
2023/01/07 01:00:55;;;;;;;0.50;0.50;;;;;;;7.74;83.13;97333.56;29395;202;63004;-90
2023/01/07 01:01:26;;;;;;;0.50;0.50;;;;;;;7.75;82.74;97332.47;29417;221;63009;-90
2023/01/07 01:01:58;;;;;;;0.50;0.50;;;;;;;7.76;82.80;97341.37;29395;220;63004;-90
2023/01/07 01:02:30;;;;;;;0.50;0.50;;;;;;;7.76;82.60;97336.00;29395;256;63009;-90
2023/01/07 01:03:02;;;;;;;0.50;0.50;;;;;;;7.76;82.50;97331.41;29395;197;63005;-91
2023/01/07 01:03:34;;;;;;;0.50;0.50;;;;;;;7.76;82.67;97339.50;29395;213;63009;-89
2023/01/07 01:04:06;;;;;;;0.50;0.50;;;;;;;7.77;82.77;97332.22;29394;217;64008;-89
2023/01/07 01:04:39;;;;;;;0.50;0.50;;;;;;;7.78;82.67;97345.47;29395;226;63009;-90
2023/01/07 01:05:10;;;;;;;0.50;0.50;;;;;;;7.78;82.77;97340.06;29395;252;63005;-90
2023/01/07 01:05:42;;;;;;;0.50;0.50;;;;;;;7.77;82.67;97334.91;29395;230;63009;-89
2023/01/07 01:06:15;;;;;;;0.50;0.50;;;;;;;7.75;83.05;97335.19;29395;206;63005;-89
2023/01/07 01:06:46;;;;;;;0.50;0.50;;;;;;;7.76;82.77;97338.69;29394;255;64013;-89
2023/01/07 01:07:18;;;;;;;0.50;0.50;;;;;;;7.73;83.32;97337.31;29395;267;63004;-89
2023/01/07 01:07:50;;;;;;;0.50;0.50;;;;;;;7.71;83.53;97334.88;29395;237;63009;-88
2023/01/07 01:08:22;;;;;;;0.50;0.50;;;;;;;7.70;83.83;97333.25;29395;208;63004;-90
2023/01/07 01:08:53;;;;;;;0.50;0.50;;;;;;;7.70;83.46;97337.84;29395;262;63009;-89
2023/01/07 01:09:26;;;;;;;0.60;0.60;;;;;;;7.70;84.31;97337.84;29394;204;64008;-89
2023/01/07 01:09:57;;;;;;;0.50;0.50;;;;;;;7.69;84.29;97336.22;29395;221;63009;-89
2023/01/07 01:10:29;;;;;;;0.50;0.50;;;;;;;7.69;84.16;97336.22;29395;218;63005;-88
2023/01/07 01:11:06;;;;;;;0.50;0.50;;;;;;;7.67;84.04;97332.97;29395;257;63009;-89
2023/01/07 01:11:37;;;;;;;0.50;0.50;;;;;;;7.67;84.19;97336.47;29394;202;64009;-90
2023/01/07 01:12:08;;;;;;;0.50;0.50;;;;;;;7.67;84.01;97338.38;29395;198;63009;-91
2023/01/07 01:12:41;;;;;;;0.50;0.50;;;;;;;7.67;84.21;97332.97;29395;211;63017;-91
2023/01/07 01:13:17;;;;;;;0.50;0.50;;;;;;;7.66;84.13;97329.47;29395;218;63019;-89
2023/01/07 01:13:50;;;;;;;0.50;0.50;;;;;;;7.66;84.15;97332.16;29395;206;63005;-89
2023/01/07 01:14:21;;;;;;;0.50;0.50;;;;;;;7.66;84.12;97331.34;29395;269;63009;-89
2023/01/07 01:14:53;;;;;;;0.50;0.50;;;;;;;7.67;84.26;97327.56;29395;202;63004;-89
2023/01/07 01:15:24;;;;;;;0.50;0.50;;;;;;;7.68;84.11;97338.12;29395;245;63009;-90
2023/01/07 01:15:55;;;;;;;0.50;0.50;;;;;;;7.68;84.09;97329.19;29395;238;63004;-89
2023/01/07 01:16:26;;;;;;;0.50;0.50;;;;;;;7.68;84.05;97329.19;29395;213;63009;-90
2023/01/07 01:16:58;;;;;;;0.50;0.50;;;;;;;7.68;84.18;97327.31;29394;334;64008;-90
2023/01/07 01:17:29;;;;;;;0.50;0.50;;;;;;;7.68;84.23;97324.59;29395;209;63020;-90
2023/01/07 01:18:00;;;;;;;0.50;0.50;;;;;;;7.68;84.19;97323.78;29395;215;63001;-90
2023/01/07 01:18:32;;;;;;;0.50;0.50;;;;;;;7.68;84.06;97330.00;29395;228;63026;-89
2023/01/07 01:19:03;;;;;;;0.50;0.50;;;;;;;7.68;83.77;97329.19;29395;246;63005;-91
2023/01/07 01:19:35;;;;;;;0.50;0.50;;;;;;;7.68;83.90;97323.78;29395;229;63009;-88
2023/01/07 01:20:09;;;;;;;0.50;0.50;;;;;;;7.69;84.03;97328.13;29395;219;63005;-89
2023/01/07 01:20:41;;;;;;;0.50;0.50;;;;;;;7.68;83.90;97329.19;29395;261;63009;-88
2023/01/07 01:21:15;;;;;;;0.50;0.50;;;;;;;7.69;84.26;97330.81;29395;213;63005;-90
2023/01/07 01:21:47;;;;;;;0.50;0.50;;;;;;;7.69;84.00;97330.81;29395;241;63023;-89
2023/01/07 01:22:19;;;;;;;0.50;0.50;;;;;;;7.70;84.29;97327.03;29394;225;64009;-89
2023/01/07 01:22:50;;;;;;;0.50;0.50;;;;;;;7.68;84.30;97332.72;29395;243;63009;-90
2023/01/07 01:23:21;;;;;;;0.50;0.50;;;;;;;7.68;84.52;97330.00;29395;205;63004;-89
2023/01/07 01:23:53;;;;;;;0.50;0.50;;;;;;;7.66;84.65;97321.34;29395;208;63004;-90
2023/01/07 01:24:24;;;;;;;0.50;0.50;;;;;;;7.67;84.48;97327.56;29395;210;63004;-88
2023/01/07 01:24:58;;;;;;;0.50;0.50;;;;;;;7.68;84.46;97332.72;29395;201;63024;-90
2023/01/07 01:25:31;;;;;;;0.50;0.50;;;;;;;7.69;84.39;97326.22;29395;213;63005;-89
2023/01/07 01:26:13;;;;;;;0.60;0.60;;;;;;;7.72;83.92;97330.28;29395;301;63009;-91
2023/01/07 01:26:45;;;;;;;0.95;0.95;;;;;;;7.72;83.99;97325.72;29395;203;63005;-91
2023/01/07 01:27:19;;;;;;;0.50;0.50;;;;;;;7.72;84.20;97328.41;29395;214;63009;-91
2023/01/07 01:27:51;;;;;;;0.50;0.50;;;;;;;7.72;84.13;97324.91;29394;228;64009;-88
2023/01/07 01:28:24;;;;;;;0.50;0.50;;;;;;;7.73;83.81;97331.94;29395;200;63009;-90
2023/01/07 01:28:58;;;;;;;0.50;0.50;;;;;;;7.73;84.08;97326.53;29395;289;63004;-90
2023/01/07 01:29:30;;;;;;;0.50;0.50;;;;;;;7.73;83.99;97326.53;29395;225;63009;-90
2023/01/07 01:30:09;;;;;;;0.50;0.50;;;;;;;7.71;83.80;97329.50;29395;199;63004;-90
2023/01/07 01:30:53;;;;;;;0.50;0.50;;;;;;;7.69;83.46;97330.81;29417;208;63009;-89
2023/01/07 01:31:27;;;;;;;0.50;0.50;;;;;;;7.69;83.91;97325.41;29395;231;63004;-90
2023/01/07 01:31:59;;;;;;;0.50;0.50;;;;;;;7.70;83.34;97321.66;29395;202;63008;-89
2023/01/07 01:32:31;;;;;;;0.50;0.50;;;;;;;7.72;83.62;97325.72;29395;219;63004;-90
2023/01/07 01:33:03;;;;;;;0.60;0.60;;;;;;;7.72;83.21;97320.31;29394;211;64014;-91
2023/01/07 01:33:37;;;;;;;0.50;0.50;;;;;;;7.77;83.14;97316.00;29394;269;63998;-89
2023/01/07 01:34:08;;;;;;;0.60;0.60;;;;;;;7.77;82.66;97322.22;29395;211;63009;-89
2023/01/07 01:34:40;;;;;;;0.50;0.50;;;;;;;7.76;82.94;97326.00;29394;254;64022;-90
2023/01/07 01:35:12;;;;;;;0.50;0.50;;;;;;;7.75;82.65;97321.66;29395;226;63009;-90
2023/01/07 01:35:45;;;;;;;0.50;0.50;;;;;;;7.75;83.11;97324.38;29395;250;63005;-89
2023/01/07 01:36:17;;;;;;;0.50;0.50;;;;;;;7.73;82.96;97326.53;29395;204;63009;-90
2023/01/07 01:36:55;;;;;;;0.50;0.50;;;;;;;7.72;83.27;97324.91;29395;219;63004;-89
2023/01/07 01:37:26;;;;;;;0.50;0.50;;;;;;;7.72;83.18;97322.19;29395;248;63009;-89
2023/01/07 01:49:44;;;;;;;0.57;0.57;;;;;;;7.61;85.27;97315.97;88122;212;64005;-88
2023/01/07 01:50:53;;;;;;;0.52;0.52;;;;;;;7.59;84.81;97317.28;29394;228;64009;-91
2023/01/07 01:51:41;;;;;;;0.60;0.60;;;;;;;7.59;84.42;97315.41;29395;220;63004;-89
2023/01/07 01:52:26;;;;;;;0.50;0.50;;;;;;;7.58;84.02;97318.37;29395;214;63008;-89
2023/01/07 01:53:24;;;;;;;0.60;0.60;;;;;;;7.58;84.45;97318.37;29395;198;63005;-91
2023/01/07 01:54:18;;;;;;;0.60;0.60;;;;;;;7.57;84.49;97316.75;29395;272;63009;-89
2023/01/07 01:55:03;;;;;;;0.60;0.60;;;;;;;7.60;85.11;97316.22;29394;197;64009;-90
2023/01/07 01:55:48;;;;;;;0.50;0.50;;;;;;;7.60;84.92;97310.81;29395;240;63009;-90
2023/01/07 01:56:33;;;;;;;0.50;0.50;;;;;;;7.60;84.67;97310.81;29395;245;63005;-91
2023/01/07 01:57:18;;;;;;;0.60;0.60;;;;;;;7.60;84.71;97305.41;29395;197;63009;-92
2023/01/07 01:58:12;;;;;;;0.60;0.60;;;;;;;7.65;84.33;97310.81;29395;228;63004;-91
2023/01/07 01:59:16;;;;;;;0.50;0.50;;;;;;;7.62;83.95;97308.66;29395;220;63009;-91
2023/01/07 02:00:01;;;;;;;0.50;0.50;;;;;;;7.64;82.49;97309.19;29395;218;63004;-89
2023/01/07 02:00:46;;;;;;;0.60;0.60;;;;;;;7.63;83.17;97315.66;29394;289;64014;-89
2023/01/07 02:01:18;;;;;;;0.50;0.50;;;;;;;7.63;83.37;97315.66;29395;220;63005;-89
2023/01/07 02:02:07;;;;;;;0.50;0.50;;;;;;;7.63;83.61;97311.06;29394;202;64014;-91
2023/01/07 02:02:53;;;;;;;0.50;0.50;;;;;;;7.64;83.47;97311.88;29395;256;63005;-89
2023/01/07 02:03:47;;;;;;;0.50;0.50;;;;;;;7.64;83.29;97306.50;29395;196;63009;-91
2023/01/07 02:04:32;;;;;;;0.50;0.50;;;;;;;7.66;82.89;97309.75;29395;206;63004;-91
2023/01/07 02:05:17;;;;;;;0.60;0.60;;;;;;;7.66;82.88;97315.12;29395;243;63009;-90
2023/01/07 02:06:02;;;;;;;0.55;0.55;;;;;;;7.67;83.21;97314.06;29395;230;63004;-89
2023/01/07 02:06:43;;;;;;;0.50;0.50;;;;;;;7.67;82.46;97311.37;29395;205;63008;-90
2023/01/07 02:07:22;;;;;;;0.50;0.50;;;;;;;7.65;82.09;97308.94;29416;206;64008;-91
2023/01/07 02:07:54;;;;;;;0.50;0.50;;;;;;;7.64;82.20;97310.00;29395;216;63009;-89
2023/01/07 02:08:25;;;;;;;0.50;0.50;;;;;;;7.64;82.73;97311.88;29395;239;63005;-90
2023/01/07 02:08:56;;;;;;;0.50;0.50;;;;;;;7.64;82.78;97303.78;29395;212;63009;-89
2023/01/07 02:09:40;;;;;;;0.50;0.50;;;;;;;7.63;82.90;97307.56;29395;379;63005;-90
2023/01/07 02:10:30;;;;;;;0.50;0.50;;;;;;;7.64;83.29;97306.50;29395;210;63009;-90
2023/01/07 02:11:48;;;;;;;0.50;0.50;;;;;;;7.64;83.42;97301.09;29395;227;63005;-90
2023/01/07 02:12:51;;;;;;;0.50;0.50;;;;;;;7.62;83.28;97303.28;29394;210;64009;-90
2023/01/07 02:13:56;;;;;;;0.50;0.50;;;;;;;7.63;83.41;97302.16;29395;215;63009;-90
2023/01/07 02:15:11;;;;;;;0.50;0.50;;;;;;;7.63;83.50;97304.88;29395;234;63008;-89
2023/01/07 02:16:40;;;;;;;0.50;0.50;;;;;;;7.62;82.81;97297.88;29394;322;64009;-89
2023/01/07 02:17:47;;;;;;;0.50;0.50;;;;;;;7.61;82.74;97301.66;29395;260;63017;-90
2023/01/07 02:19:16;;;;;;;0.50;0.50;;;;;;;7.61;82.92;97298.94;29394;331;64009;-91
2023/01/07 02:20:27;;;;;;;0.60;0.60;;;;;;;7.57;82.85;97289.75;29395;218;63009;-90
2023/01/07 02:21:42;;;;;;;0.50;0.50;;;;;;;7.59;83.24;97290.28;29417;232;63004;-91
2023/01/07 02:23:05;;;;;;;0.60;0.60;;;;;;;7.60;83.70;97300.00;29395;218;63009;-91
2023/01/07 02:24:30;;;;;;;0.52;0.52;;;;;;;7.58;82.82;97285.97;29394;222;63999;-88
2023/01/07 02:25:50;;;;;;;0.55;0.55;;;;;;;7.60;82.62;97291.91;29395;280;63009;-90
2023/01/07 02:27:07;;;;;;;0.57;0.57;;;;;;;7.61;82.25;97290.84;29395;223;63016;-88
2023/01/07 02:28:22;;;;;;;0.50;0.50;;;;;;;7.61;81.87;97286.25;29395;280;63009;-89
2023/01/07 02:29:45;;;;;;;0.60;0.60;;;;;;;7.61;81.46;97285.44;29394;274;64008;-89
2023/01/07 02:31:14;;;;;;;0.60;0.60;;;;;;;7.61;81.69;97285.44;29417;263;63009;-90
2023/01/07 02:32:43;;;;;;;0.50;0.50;;;;;;;7.60;81.19;97284.62;29394;231;64009;-87
2023/01/07 02:33:37;;;;;;;0.50;0.50;;;;;;;7.60;80.97;97284.62;29395;196;63009;-89
2023/01/07 02:34:47;;;;;;;0.50;0.50;;;;;;;7.60;80.77;97278.41;29395;220;63009;-90
2023/01/07 02:35:52;;;;;;;0.60;0.60;;;;;;;7.59;80.50;97274.09;29416;227;64004;-89
2023/01/07 02:36:41;;;;;;;0.50;0.50;;;;;;;7.58;80.65;97272.47;29395;308;63008;-91
2023/01/07 02:37:58;;;;;;;0.50;0.50;;;;;;;7.57;80.63;97273.53;29394;201;64009;-90
2023/01/07 02:38:58;;;;;;;0.50;0.50;;;;;;;7.56;80.28;97272.72;29395;207;63009;-92
2023/01/07 02:40:00;;;;;;;0.50;0.50;;;;;;;7.57;80.21;97268.12;29395;202;63005;-89
2023/01/07 02:41:12;;;;;;;0.50;0.50;;;;;;;7.58;80.09;97275.16;29395;216;63017;-89
2023/01/07 02:42:22;;;;;;;0.60;0.60;;;;;;;7.57;79.81;97265.44;29417;198;63011;-89
2023/01/07 02:43:16;;;;;;;0.50;0.50;;;;;;;7.55;79.62;97273.00;29394;209;64013;-90
2023/01/07 02:44:22;;;;;;;0.60;0.60;;;;;;;7.56;79.25;97261.09;29395;214;63009;-91
2023/01/07 02:45:26;;;;;;;0.50;0.50;;;;;;;7.54;79.09;97264.06;29395;278;63009;-89
2023/01/07 02:46:52;;;;;;;0.55;0.55;;;;;;;7.55;79.17;97264.87;29395;197;63009;-91
2023/01/07 02:47:58;;;;;;;0.50;0.50;;;;;;;7.60;79.11;97264.91;29395;230;63005;-90
2023/01/07 02:48:31;;;;;;;0.60;0.60;;;;;;;7.60;78.31;97256.81;29394;247;64013;-89
2023/01/07 02:49:10;;;;;;;0.50;0.50;;;;;;;7.60;77.94;97264.91;29395;197;63004;-89
2023/01/07 02:49:42;;;;;;;0.50;0.50;;;;;;;7.59;77.99;97253.28;29395;239;63009;-89
2023/01/07 02:50:14;;;;;;;0.50;0.50;;;;;;;7.59;78.09;97260.59;29395;212;63004;-90
2023/01/07 02:50:45;;;;;;;0.50;0.50;;;;;;;7.60;78.20;97256.81;29395;197;63009;-89
2023/01/07 02:51:17;;;;;;;0.50;0.50;;;;;;;7.62;78.49;97262.75;29394;230;64009;-90
2023/01/07 02:51:50;;;;;;;0.50;0.50;;;;;;;7.61;78.03;97258.44;29395;246;63008;-89
2023/01/07 02:52:28;;;;;;;0.50;0.50;;;;;;;7.61;78.00;97247.63;29395;239;63005;-90
2023/01/07 02:53:09;;;;;;;0.50;0.50;;;;;;;7.60;78.00;97256.81;29395;269;63005;-89
2023/01/07 02:53:45;;;;;;;;;;;;;;;7.62;77.97;97251.97;29996;984;6005;-90
2023/01/07 02:54:27;;;;;;;0.50;0.50;;;;;;;7.63;77.77;97242.75;29400;198;63000;-88
2023/01/07 02:55:14;;;;;;;0.50;0.50;;;;;;;7.65;77.67;97254.09;29395;238;63005;-89
2023/01/07 02:57:45;;;;;;;0.50;0.50;;;;;;;7.63;77.76;97246.25;87959;202;130000;-90
2023/01/07 02:58:38;;;;;;;0.50;0.50;;;;;;;7.60;77.45;97246.81;29394;326;64009;-90
2023/01/07 02:59:42;;;;;;;0.50;0.50;;;;;;;7.60;77.69;97246.81;29394;214;64009;-90
2023/01/07 03:01:02;;;;;;;0.60;0.60;;;;;;;7.60;77.93;97246.00;29395;378;63009;-91
2023/01/07 03:02:25;;;;;;;0.50;0.50;;;;;;;7.63;77.13;97251.66;29395;256;63004;-90
2023/01/07 03:03:13;;;;;;;0.50;0.50;;;;;;;7.63;76.94;97240.03;29395;206;63009;-91
2023/01/07 03:04:30;;;;;;;0.50;0.50;;;;;;;7.62;77.22;97243.84;29395;262;63005;-89
2023/01/07 03:05:56;;;;;;;0.60;0.60;;;;;;;7.61;77.12;97243.03;29394;271;64013;-91
2023/01/07 03:07:11;;;;;;;0.50;0.50;;;;;;;7.62;77.35;97235.75;29395;232;63005;-91
2023/01/07 03:08:28;;;;;;;0.60;0.60;;;;;;;7.57;77.45;97235.72;29395;218;63009;-89
2023/01/07 03:09:37;;;;;;;0.50;0.50;;;;;;;7.54;77.81;97241.66;29395;197;63009;-90
2023/01/07 03:10:34;;;;;;;0.50;0.50;;;;;;;7.55;77.54;97238.69;29394;259;64008;-89
2023/01/07 03:12:43;;;;;;;0.60;0.60;;;;;;;7.55;77.89;97227.09;88182;213;64020;-89
2023/01/07 03:13:22;;;;;;;0.50;0.50;;;;;;;7.52;78.32;97239.22;29394;221;64009;-90
2023/01/07 03:14:24;;;;;;;0.50;0.50;;;;;;;7.52;78.17;97233.00;29395;204;63005;-90
2023/01/07 03:15:13;;;;;;;0.60;0.60;;;;;;;7.49;78.01;97231.66;29417;273;63009;-89
2023/01/07 03:15:52;;;;;;;0.50;0.50;;;;;;;7.50;78.30;97224.34;29394;226;64000;-90
2023/01/07 03:16:43;;;;;;;0.60;0.60;;;;;;;7.50;78.43;97229.75;29395;223;63009;-90
2023/01/07 03:17:24;;;;;;;0.60;0.60;;;;;;;7.50;78.20;97227.06;29417;202;63004;-90
2023/01/07 03:18:15;;;;;;;0.50;0.50;;;;;;;7.53;77.79;97229.22;29395;197;63009;-90
2023/01/07 03:18:55;;;;;;;0.50;0.50;;;;;;;7.60;77.33;97224.41;29395;219;63007;-90
2023/01/07 03:19:40;;;;;;;0.60;0.60;;;;;;;7.64;76.81;97230.88;29395;197;63008;-89
2023/01/07 03:20:15;;;;;;;0.50;0.50;;;;;;;7.63;76.87;97224.66;29395;293;63005;-89
2023/01/07 03:20:56;;;;;;;0.60;0.60;;;;;;;7.66;76.36;97226.00;29394;239;64014;-87
2023/01/07 03:21:32;;;;;;;0.50;0.50;;;;;;;7.69;76.29;97223.59;29416;220;64009;-88
2023/01/07 03:22:08;;;;;;;0.50;0.50;;;;;;;7.67;76.60;97220.34;29395;197;63009;-89
2023/01/07 03:22:54;;;;;;;0.52;0.52;;;;;;;7.63;76.84;97223.84;29395;227;63014;-90
2023/01/07 03:23:29;;;;;;;0.50;0.50;;;;;;;7.59;76.97;97225.47;29395;298;63009;-90
2023/01/07 03:24:02;;;;;;;0.50;0.50;;;;;;;7.57;77.14;97219.53;29395;205;63005;-90
2023/01/07 03:24:40;;;;;;;0.50;0.50;;;;;;;7.56;77.03;97228.72;29394;294;64009;-92
2023/01/07 03:25:13;;;;;;;0.50;0.50;;;;;;;7.57;77.40;97222.22;29395;208;63004;-89
2023/01/07 03:25:47;;;;;;;0.60;0.60;;;;;;;7.59;76.91;97220.06;29395;228;63009;-91
2023/01/07 03:26:26;;;;;;;0.50;0.50;;;;;;;7.59;76.68;97218.19;29395;206;63004;-90
2023/01/07 03:27:00;;;;;;;0.50;0.50;;;;;;;7.58;76.59;97218.44;29394;245;64013;-89
2023/01/07 03:27:35;;;;;;;0.50;0.50;;;;;;;7.58;76.65;97221.16;29394;197;64005;-78
2023/01/07 03:28:09;;;;;;;2.03;1.98;;;;;;;7.57;76.98;97214.94;29394;265;64014;-90
2023/01/07 03:28:42;;;;;;;0.50;0.50;;;;;;;7.56;76.77;97217.91;29395;268;63005;-89
2023/01/07 03:29:18;;;;;;;0.50;0.50;;;;;;;7.56;77.31;97213.31;29394;263;64013;-90
2023/01/07 03:29:55;;;;;;;0.50;0.50;;;;;;;7.57;76.91;97216.81;29394;202;64009;-90
2023/01/07 03:30:29;;;;;;;0.50;0.50;;;;;;;7.57;77.05;97216.81;29395;225;63019;-90
2023/01/07 03:31:06;;;;;;;0.50;0.50;;;;;;;7.57;77.37;97209.53;29395;217;63005;-89
2023/01/07 03:31:48;;;;;;;0.52;0.52;;;;;;;7.56;77.05;97216.00;29395;207;63009;-89
2023/01/07 03:32:36;;;;;;;0.60;0.60;;;;;;;7.57;77.02;97214.13;29395;267;63004;-90
2023/01/07 03:33:31;;;;;;;0.50;0.50;;;;;;;7.55;76.73;97214.38;29395;257;63009;-91
2023/01/07 03:34:08;;;;;;;0.50;0.50;;;;;;;7.54;77.21;97214.66;29395;242;63006;-91
2023/01/07 03:34:43;;;;;;;0.50;0.50;;;;;;;7.57;76.63;97208.72;29395;202;63023;-92
2023/01/07 03:35:15;;;;;;;0.50;0.50;;;;;;;7.57;76.53;97208.72;29394;208;64009;-91
2023/01/07 03:35:50;;;;;;;0.60;0.60;;;;;;;7.58;76.36;97204.94;29395;219;63009;-90
2023/01/07 03:36:27;;;;;;;0.50;0.50;;;;;;;7.57;76.65;97203.31;29394;262;63999;-90
2023/01/07 03:37:23;;;;;;;0.50;0.50;;;;;;;7.54;76.50;97204.66;29395;213;63009;-89
2023/01/07 03:37:59;;;;;;;0.50;0.50;;;;;;;7.54;76.85;97203.84;29395;212;63005;-88
2023/01/07 03:38:36;;;;;;;0.50;0.50;;;;;;;7.54;76.91;97206.56;29394;258;64013;-90
2023/01/07 03:39:11;;;;;;;0.50;0.50;;;;;;;7.52;76.40;97200.59;29395;240;63005;-90